RJCC/CTS METAR and TAF weather

Enter ICAO airport designator
Station Type Date Time Source
RJCC METAR 2020/03/31 12:00 UTC NOAA

RJCC 311200Z 18010KT 9999 FEW015 BKN018 05/03 Q1019


Station Type Date Time Source
RJCC Decoded METAR 2020/03/31 12:00 UTC NOAA

Chitose Ab, Japan (RJCC) 42-48N 141-40E 30M
Mar 31, 2020 - 08:00 AM EDT / 2020.03.31 1200 UTC
Wind: from the S (180 degrees) at 12 MPH (10 KT):0
Visibility: greater than 7 mile(s):0
Sky conditions: mostly cloudy
Temperature: 41 F (5 C)
Dew Point: 37 F (3 C)
Relative Humidity: 86%
Pressure (altimeter): 30.09 in. Hg (1019 hPa)
ob: RJCC 311200Z 18010KT 9999 FEW015 BKN018 05/03 Q1019
cycle: 12

Station Type Date Time Source
RJCC TAF 2020/03/31 12:31 UTC NOAA

TAF RJCC 311105Z 3112/0118 15010KT 9999 FEW006 BKN015
BECMG 0106/0109 34018KT

Example: see airport list